Terminal Aerodrome Forecast
Issued by NWS Cleveland, OH

Home | Current Version | Previous Version | Graphics & Text | Print | Product List | Glossary On
Versions: 1 2 3 4 5 6 7 8 9 10 11 12 13 14 15 16 17 18
000
FTUS41 KCLE 011120
TAFCAK
TAF
KCAK 011120Z 0112/0212 24006KT 4SM BR OVC006
      TEMPO 0112/0114 2SM BR BKN004
     FM011400 28007KT 6SM BR SCT008 BKN012
     FM011500 28008KT P6SM SCT012 BKN025
     FM011800 29010KT P6SM BKN050
     FM012100 28008KT P6SM SCT045
     FM020200 36005KT P6SM BKN250
     FM020800 02004KT 4SM BR BKN025=

USA.gov is the U.S. government's official web portal to all federal, state and local government web resources and services.